Time;durP1;ratioP1;P1;durP2;ratioP2;P2;SDS_P1;SDS_P2;PMS_P1;PMS_P2;Temp;Humidity;BMP_temperature;BMP_pressure;BME280_temperature;BME280_humidity;BME280_pressure;Samples;Min_cycle;Max_cycle;Signal;HPM_P1;HPM_P2
2022/06/14 00:01:40;;;;;;;3.63;3.33;;;23.80;60.10;;;;;;5079793;28;20025;-49
2022/06/14 00:04:06;;;;;;;3.35;3.05;;;23.80;60.10;;;;;;5079000;28;20038;-50
2022/06/14 00:06:33;;;;;;;3.50;3.20;;;23.70;59.90;;;;;;5078949;28;20035;-50
2022/06/14 00:08:59;;;;;;;3.40;2.90;;;23.70;60.00;;;;;;5075380;28;20029;-49
2022/06/14 00:11:34;;;;;;;4.47;3.08;;;23.70;59.80;;;;;;5079013;28;20048;-47
2022/06/14 00:14:00;;;;;;;3.38;3.08;;;23.70;59.80;;;;;;5074898;28;20559;-47
2022/06/14 00:16:27;;;;;;;3.75;3.00;;;23.70;60.20;;;;;;5061671;28;20035;-46
2022/06/14 00:18:53;;;;;;;3.53;3.03;;;23.70;60.10;;;;;;5074945;28;20036;-46
2022/06/14 00:21:19;;;;;;;2.90;2.60;;;23.60;60.10;;;;;;5080823;28;20080;-47
2022/06/14 00:23:46;;;;;;;3.40;3.05;;;23.60;60.00;;;;;;5075283;28;20530;-48
2022/06/14 00:26:12;;;;;;;4.00;2.50;;;23.50;60.00;;;;;;5072992;28;20044;-49
2022/06/14 00:28:39;;;;;;;2.97;2.67;;;23.50;60.00;;;;;;5051785;28;20074;-52
2022/06/14 00:31:12;;;;;;;;;;;23.60;60.00;;;;;;5072950;28;20040;-50
2022/06/14 00:33:38;;;;;;;3.75;2.88;;;23.60;59.60;;;;;;5069735;28;19980;-49
2022/06/14 00:36:20;;;;;;;3.90;2.60;;;23.50;59.70;;;;;;5072213;28;20031;-50
2022/06/14 00:38:46;;;;;;;5.68;3.30;;;23.50;60.20;;;;;;5073442;28;20024;-50
2022/06/14 00:41:28;;;;;;;7.95;3.42;;;23.40;61.70;;;;;;5073730;28;20070;-47
2022/06/14 00:43:54;;;;;;;4.40;3.20;;;23.40;62.20;;;;;;5055081;28;20032;-47
2022/06/14 00:46:23;;;;;;;6.23;3.30;;;23.40;62.60;;;;;;5072386;28;20044;-52
2022/06/14 00:48:56;;;;;;;5.55;3.38;;;23.40;63.10;;;;;;5070935;28;20102;-47
2022/06/14 00:51:31;;;;;;;4.35;3.03;;;23.40;64.00;;;;;;5036331;28;20040;-48
2022/06/14 00:54:25;;;;;;;3.58;3.25;;;23.30;63.50;;;;;;5054024;28;20099;-49
2022/06/14 00:56:58;;;;;;;4.20;3.22;;;23.30;64.40;;;;;;4994141;28;20101;-47
2022/06/14 00:59:32;;;;;;;4.45;2.97;;;23.30;64.60;;;;;;5010518;28;20038;-46
2022/06/14 01:02:07;;;;;;;3.55;3.20;;;23.30;63.50;;;;;;5006395;28;20487;-45
2022/06/14 01:04:33;;;;;;;3.28;2.97;;;23.20;63.10;;;;;;4991183;28;20033;-45
2022/06/14 01:07:17;;;;;;;4.28;2.95;;;23.20;62.10;;;;;;5008456;28;20042;-43
2022/06/14 01:09:53;;;;;;;4.68;3.30;;;23.20;62.20;;;;;;4995437;28;20072;-42
2022/06/14 01:12:21;;;;;;;3.38;3.08;;;23.10;61.60;;;;;;4997015;28;20030;-44
2022/06/14 01:15:05;;;;;;;3.50;3.20;;;23.10;61.50;;;;;;4995082;28;20053;-43
2022/06/14 01:17:41;;;;;;;3.10;2.80;;;23.10;61.10;;;;;;5010873;28;20030;-46
2022/06/14 01:20:09;;;;;;;3.85;3.22;;;23.00;61.20;;;;;;4992885;28;20070;-45
2022/06/14 01:22:35;;;;;;;3.55;3.25;;;23.00;60.90;;;;;;5009558;28;20106;-44
2022/06/14 01:25:02;;;;;;;3.33;3.03;;;22.90;61.60;;;;;;5014529;28;20084;-45
2022/06/14 01:27:29;;;;;;;3.45;3.15;;;22.90;61.70;;;;;;5016280;28;20106;-45
2022/06/14 01:30:06;;;;;;;3.53;2.90;;;22.90;61.70;;;;;;4997997;28;20030;-46
2022/06/14 01:32:34;;;;;;;3.65;3.05;;;22.90;61.50;;;;;;5002036;28;20089;-45
2022/06/14 01:35:03;;;;;;;3.50;3.10;;;22.90;61.40;;;;;;5061228;28;20686;-44
2022/06/14 01:37:29;;;;;;;3.20;2.90;;;22.90;61.40;;;;;;5079507;28;20028;-44
2022/06/14 01:39:55;;;;;;;3.10;2.80;;;22.80;61.00;;;;;;5081232;28;20024;-43
2022/06/14 01:42:57;;;;;;;3.40;3.00;;;22.80;60.70;;;;;;5054687;28;23269;-45
2022/06/14 01:45:32;;;;;;;3.30;3.00;;;22.80;60.70;;;;;;5056579;28;20048;-45
2022/06/14 01:48:20;;;;;;;3.05;2.70;;;22.80;60.70;;;;;;5038718;28;20044;-45
2022/06/14 01:54:10;;;;;;;3.00;2.70;;;22.80;60.70;;;;;;5054089;28;20067;-47
2022/06/14 01:57:04;;;;;;;3.25;3.00;;;22.70;60.40;;;;;;5050190;28;20025;-49
2022/06/14 01:59:49;;;;;;;3.15;2.85;;;22.70;60.90;;;;;;5066397;28;20043;-46
2022/06/14 02:02:39;;;;;;;2.97;2.67;;;22.70;60.80;;;;;;5048954;28;20017;-46
2022/06/14 02:05:21;;;;;;;2.78;2.58;;;22.70;60.90;;;;;;5047907;28;20036;-47
2022/06/14 02:08:07;;;;;;;2.85;2.65;;;22.70;60.70;;;;;;5068645;28;20088;-51
2022/06/14 02:10:40;;;;;;;3.42;2.90;;;22.70;60.70;;;;;;5052191;28;20048;-47
2022/06/14 02:13:21;;;;;;;2.95;2.65;;;22.70;60.60;;;;;;5073130;28;20032;-51
2022/06/14 02:15:58;;;;;;;3.05;2.67;;;22.70;60.50;;;;;;5073282;28;20096;-47
2022/06/14 02:18:35;;;;;;;3.13;2.83;;;22.70;60.60;;;;;;5067507;28;20036;-50
2022/06/14 02:21:25;;;;;;;2.92;2.72;;;22.60;60.50;;;;;;5072113;28;20045;-45
2022/06/14 02:24:01;;;;;;;3.90;2.50;;;22.60;60.60;;;;;;5060440;28;20577;-46
2022/06/14 02:26:34;;;;;;;4.28;2.90;;;22.60;60.80;;;;;;5080965;28;20051;-47
2022/06/14 02:29:21;;;;;;;2.80;2.60;;;22.60;61.90;;;;;;5064057;28;20029;-49
2022/06/14 02:31:52;;;;;;;3.72;2.55;;;22.60;61.80;;;;;;5075406;28;20032;-49
2022/06/14 02:34:26;;;;;;;3.53;2.83;;;22.60;62.40;;;;;;5064745;28;20178;-49
2022/06/14 02:36:55;;;;;;;2.97;2.78;;;22.60;62.90;;;;;;5051652;28;20044;-48
2022/06/14 02:39:23;;;;;;;3.30;2.88;;;22.50;63.20;;;;;;5083878;28;20028;-50
2022/06/14 02:42:20;;;;;;;4.30;2.88;;;22.50;63.50;;;;;;5064152;28;21560;-50
2022/06/14 02:45:04;;;;;;;3.92;3.10;;;22.50;64.10;;;;;;5062413;28;20040;-48
2022/06/14 02:47:33;;;;;;;3.20;2.90;;;22.50;64.30;;;;;;5093789;28;20025;-53
2022/06/14 02:50:00;;;;;;;3.35;3.00;;;22.50;64.40;;;;;;5087176;28;20087;-52
2022/06/14 02:52:30;;;;;;;;;;;22.50;64.70;;;;;;5091565;28;20036;-52
2022/06/14 02:55:11;;;;;;;2.95;2.70;;;22.50;64.80;;;;;;5074094;28;19942;-51
2022/06/14 02:57:59;;;;;;;3.65;3.35;;;22.50;65.10;;;;;;5047657;28;20373;-53
2022/06/14 03:00:28;;;;;;;3.83;3.53;;;22.40;65.10;;;;;;5079770;28;20044;-47
2022/06/14 03:02:59;;;;;;;3.10;2.65;;;22.40;65.40;;;;;;5069078;28;20028;-50
2022/06/14 03:05:38;;;;;;;3.55;3.10;;;22.40;65.40;;;;;;5060066;28;20064;-51
2022/06/14 03:08:18;;;;;;;3.17;2.88;;;22.40;65.50;;;;;;5061354;28;20024;-53
2022/06/14 03:11:12;;;;;;;2.97;2.78;;;22.30;65.40;;;;;;5082584;28;20033;-49
2022/06/14 03:14:05;;;;;;;3.78;3.30;;;22.30;65.60;;;;;;5070462;28;20036;-47
2022/06/14 03:16:50;;;;;;;3.22;3.00;;;22.30;65.20;;;;;;5057847;28;20477;-52
2022/06/14 03:19:50;;;;;;;3.72;3.10;;;22.30;65.90;;;;;;5073906;28;20070;-49
2022/06/14 03:22:34;;;;;;;4.05;3.38;;;22.30;66.10;;;;;;5057629;28;20044;-54
2022/06/14 03:25:21;;;;;;;3.63;3.33;;;22.30;65.90;;;;;;5071224;28;20064;-47
2022/06/14 03:28:12;;;;;;;3.60;2.90;;;22.20;66.10;;;;;;5043770;28;20035;-48
2022/06/14 03:30:41;;;;;;;3.40;3.10;;;22.20;65.90;;;;;;5057677;28;20424;-55
2022/06/14 03:33:14;;;;;;;3.53;3.22;;;22.20;66.20;;;;;;5053897;28;20048;-52
2022/06/14 03:35:44;;;;;;;3.20;3.00;;;22.20;65.90;;;;;;5056738;28;20033;-50
2022/06/14 03:38:20;;;;;;;3.38;3.08;;;22.20;66.10;;;;;;5053533;28;20036;-50
2022/06/14 03:40:46;;;;;;;3.30;3.00;;;22.20;66.20;;;;;;5070776;28;20024;-51
2022/06/14 03:43:13;;;;;;;3.58;3.28;;;22.10;66.10;;;;;;5086188;28;20051;-50
2022/06/14 03:45:52;;;;;;;3.40;3.10;;;22.10;66.10;;;;;;5057794;28;20054;-48
2022/06/14 03:48:19;;;;;;;4.53;3.10;;;22.10;65.70;;;;;;5058619;28;20032;-48
2022/06/14 03:51:13;;;;;;;3.50;3.20;;;22.10;65.80;;;;;;5046204;28;20560;-47
2022/06/14 03:53:54;;;;;;;3.58;3.10;;;22.10;65.90;;;;;;5077511;28;20055;-48
2022/06/14 03:56:39;;;;;;;3.67;3.38;;;22.00;66.20;;;;;;5091947;28;20040;-49
2022/06/14 03:59:15;;;;;;;3.67;2.92;;;22.00;66.10;;;;;;5073862;28;20016;-50
2022/06/14 04:01:47;;;;;;;3.35;2.90;;;22.00;66.40;;;;;;5063412;28;21179;-52
2022/06/14 04:04:30;;;;;;;3.63;3.33;;;22.00;66.00;;;;;;5044190;28;20025;-50
2022/06/14 04:07:11;;;;;;;3.40;3.10;;;21.90;66.30;;;;;;5069210;28;20056;-52
2022/06/14 04:09:57;;;;;;;3.38;3.08;;;21.90;66.00;;;;;;5080937;28;20024;-50
2022/06/14 04:12:43;;;;;;;3.78;3.45;;;21.90;65.60;;;;;;5063178;28;20561;-47
2022/06/14 04:15:55;;;;;;;3.85;3.55;;;21.90;66.00;;;;;;5082554;28;20040;-46
2022/06/14 04:18:39;;;;;;;3.60;3.20;;;21.90;66.00;;;;;;5062662;28;20032;-50
2022/06/14 04:21:13;;;;;;;3.58;3.28;;;21.80;65.60;;;;;;5077709;28;20052;-51
2022/06/14 04:24:09;;;;;;;3.30;3.00;;;21.80;65.90;;;;;;5059220;28;20053;-49
2022/06/14 04:26:44;;;;;;;3.75;3.10;;;21.80;65.70;;;;;;5047742;28;20044;-54
2022/06/14 04:29:31;;;;;;;4.10;3.20;;;21.80;66.00;;;;;;5058225;28;20107;-51
2022/06/14 04:32:03;;;;;;;3.75;3.20;;;21.80;65.90;;;;;;5068632;28;20029;-50
2022/06/14 04:34:31;;;;;;;3.40;3.10;;;21.70;66.00;;;;;;5076044;28;20037;-51
2022/06/14 04:37:27;;;;;;;4.22;3.60;;;21.70;66.10;;;;;;5079094;28;20025;-47
2022/06/14 04:40:20;;;;;;;3.65;3.35;;;21.70;66.30;;;;;;5077686;28;20024;-50
2022/06/14 04:42:55;;;;;;;3.50;3.20;;;21.70;65.50;;;;;;5072382;28;20075;-48
2022/06/14 04:45:35;;;;;;;3.70;3.40;;;21.60;65.70;;;;;;5028678;28;20096;-49
2022/06/14 04:48:11;;;;;;;3.70;3.20;;;21.60;66.30;;;;;;5060374;28;20052;-52
2022/06/14 04:50:44;;;;;;;3.65;3.28;;;21.60;66.10;;;;;;5060868;28;20056;-53
2022/06/14 04:53:32;;;;;;;3.38;3.08;;;21.60;65.90;;;;;;5056610;28;20021;-51
2022/06/14 04:56:48;;;;;;;3.40;3.10;;;21.60;66.00;;;;;;5079660;28;20028;-52
2022/06/14 04:59:17;;;;;;;3.10;2.90;;;21.60;65.90;;;;;;5047867;28;20043;-48
2022/06/14 05:02:19;;;;;;;3.67;3.20;;;21.50;66.00;;;;;;5061603;28;20036;-47
2022/06/14 05:04:58;;;;;;;3.17;2.92;;;21.50;65.60;;;;;;5048268;28;20766;-50
2022/06/14 05:07:30;;;;;;;3.10;2.80;;;21.50;65.50;;;;;;5063142;28;20051;-53
2022/06/14 05:10:01;;;;;;;3.78;3.05;;;21.50;65.80;;;;;;5063808;28;20776;-50
2022/06/14 05:12:32;;;;;;;3.80;3.40;;;21.50;65.70;;;;;;5071343;28;20033;-54
2022/06/14 05:15:20;;;;;;;3.65;3.15;;;21.40;65.80;;;;;;5078007;28;20044;-49
2022/06/14 05:18:03;;;;;;;3.45;3.15;;;21.40;65.90;;;;;;5062735;28;20024;-52
2022/06/14 05:20:58;;;;;;;4.05;3.25;;;21.40;66.00;;;;;;5053893;28;20039;-52
2022/06/14 05:23:47;;;;;;;3.40;3.10;;;21.40;65.70;;;;;;5051301;28;20048;-52
2022/06/14 05:26:32;;;;;;;;;;;21.30;65.80;;;;;;5049381;28;20037;-53
2022/06/14 05:29:12;;;;;;;3.95;2.92;;;21.30;65.70;;;;;;5068238;28;19927;-49
2022/06/14 05:31:58;;;;;;;3.75;3.45;;;21.30;65.60;;;;;;5051317;28;20093;-52
2022/06/14 05:34:27;;;;;;;3.38;3.08;;;21.30;65.60;;;;;;5050888;28;20528;-52
2022/06/14 05:37:10;;;;;;;3.40;3.10;;;21.20;65.50;;;;;;5069367;28;20040;-47
2022/06/14 05:39:38;;;;;;;3.30;2.97;;;21.20;65.40;;;;;;5049961;28;20036;-50
2022/06/14 05:42:14;;;;;;;3.58;3.25;;;21.20;65.50;;;;;;5068228;28;20093;-49
2022/06/14 05:44:45;;;;;;;3.35;3.05;;;21.20;65.40;;;;;;5068371;28;20040;-51
2022/06/14 05:47:40;;;;;;;4.00;3.60;;;21.10;65.50;;;;;;5050867;28;20040;-51
2022/06/14 05:50:23;;;;;;;3.35;3.05;;;21.10;65.50;;;;;;5065205;28;20040;-50
2022/06/14 05:52:54;;;;;;;3.42;3.13;;;21.10;65.50;;;;;;5071652;28;20020;-49
2022/06/14 05:55:38;;;;;;;3.50;3.20;;;21.10;65.50;;;;;;5083413;28;20033;-48
2022/06/14 05:58:07;;;;;;;3.25;2.92;;;21.10;65.50;;;;;;5069945;28;20062;-50
2022/06/14 06:00:53;;;;;;;3.38;3.08;;;21.00;65.30;;;;;;5084573;28;20028;-48
2022/06/14 06:03:22;;;;;;;3.47;3.17;;;21.00;65.10;;;;;;5051449;28;20033;-52
2022/06/14 06:05:54;;;;;;;3.28;2.97;;;21.00;65.10;;;;;;5088023;28;20045;-52
2022/06/14 06:08:49;;;;;;;3.50;3.20;;;21.00;65.00;;;;;;5066422;28;20032;-48
2022/06/14 06:11:47;;;;;;;2.65;2.45;;;20.90;65.20;;;;;;5067020;28;20028;-51
2022/06/14 06:14:40;;;;;;;3.97;3.22;;;20.90;65.10;;;;;;5080333;28;20040;-48
2022/06/14 06:17:23;;;;;;;3.70;2.92;;;20.90;65.10;;;;;;5078357;28;20041;-49
2022/06/14 06:19:52;;;;;;;3.72;3.28;;;20.90;65.10;;;;;;5077259;28;20035;-49
2022/06/14 06:22:20;;;;;;;3.60;3.30;;;20.90;65.10;;;;;;5076275;28;20111;-51
2022/06/14 06:24:45;;;;;;;;;;;20.80;64.90;;;;;;5077048;28;20048;-53
2022/06/14 06:27:12;;;;;;;3.55;3.25;;;20.80;65.00;;;;;;5078988;28;19989;-52
2022/06/14 06:29:52;;;;;;;3.60;3.30;;;20.80;64.90;;;;;;5074692;28;20052;-47
2022/06/14 06:32:18;;;;;;;3.38;3.08;;;20.80;64.80;;;;;;5057327;28;20137;-48
2022/06/14 06:34:44;;;;;;;3.10;2.90;;;20.70;64.60;;;;;;5055229;28;20043;-48
2022/06/14 06:37:26;;;;;;;3.33;3.03;;;20.70;64.70;;;;;;5061001;28;20055;-51
2022/06/14 06:40:00;;;;;;;3.15;2.85;;;20.70;64.60;;;;;;5056278;28;20126;-46
2022/06/14 06:42:45;;;;;;;3.85;2.88;;;20.70;64.80;;;;;;5076889;28;20055;-49
2022/06/14 06:45:26;;;;;;;3.17;2.88;;;20.70;64.70;;;;;;5074600;28;20029;-48
2022/06/14 06:48:14;;;;;;;3.50;3.20;;;20.60;64.70;;;;;;5077798;28;20028;-49
2022/06/14 06:50:43;;;;;;;3.40;3.10;;;20.60;65.20;;;;;;5082631;28;20639;-48
2022/06/14 06:53:24;;;;;;;3.40;3.10;;;20.60;64.60;;;;;;5070557;28;20047;-50
2022/06/14 06:56:00;;;;;;;3.25;2.97;;;20.60;64.70;;;;;;5083375;28;20040;-52
2022/06/14 06:58:29;;;;;;;3.10;2.80;;;20.60;64.70;;;;;;5048302;28;20032;-47
2022/06/14 07:00:57;;;;;;;3.15;2.88;;;20.50;64.80;;;;;;5065324;28;20021;-50
2022/06/14 07:03:45;;;;;;;3.13;2.83;;;20.50;65.40;;;;;;5062508;28;20679;-48
2022/06/14 07:06:19;;;;;;;2.88;2.67;;;20.50;65.20;;;;;;5097425;28;20036;-47
2022/06/14 07:09:16;;;;;;;3.13;2.80;;;20.50;65.00;;;;;;5053428;28;20020;-51
2022/06/14 07:11:49;;;;;;;3.42;2.85;;;20.40;64.90;;;;;;5069100;28;20029;-53
2022/06/14 07:14:15;;;;;;;3.38;2.80;;;20.40;64.70;;;;;;5070237;28;20162;-51
2022/06/14 07:16:47;;;;;;;3.30;3.00;;;20.40;64.60;;;;;;5079358;28;20111;-52
2022/06/14 07:19:28;;;;;;;3.20;2.90;;;20.40;64.90;;;;;;5045780;28;20052;-50
2022/06/14 07:22:11;;;;;;;3.20;2.90;;;20.40;64.70;;;;;;5047124;28;20028;-48
2022/06/14 07:24:49;;;;;;;3.13;2.83;;;20.30;65.10;;;;;;5058670;28;20075;-52
2022/06/14 07:27:16;;;;;;;3.40;3.10;;;20.40;65.00;;;;;;5066564;28;20750;-51
2022/06/14 07:29:48;;;;;;;3.17;2.88;;;20.30;64.60;;;;;;5083438;28;20044;-49
2022/06/14 07:32:28;;;;;;;3.50;3.20;;;20.30;64.90;;;;;;5068384;28;20016;-50
2022/06/14 07:34:54;;;;;;;3.83;2.90;;;20.30;64.70;;;;;;5051813;28;20041;-55
2022/06/14 07:37:29;;;;;;;3.08;2.78;;;20.20;64.80;;;;;;5077671;28;20036;-53
2022/06/14 07:40:21;;;;;;;3.92;2.90;;;20.20;64.90;;;;;;5093874;28;20052;-51
2022/06/14 07:43:06;;;;;;;3.60;3.30;;;20.20;64.90;;;;;;5056956;28;20033;-49
2022/06/14 07:45:35;;;;;;;3.17;2.88;;;20.20;65.00;;;;;;5055430;28;20033;-53
2022/06/14 07:48:15;;;;;;;2.95;2.75;;;20.20;64.80;;;;;;5081193;28;20417;-49
2022/06/14 07:50:45;;;;;;;2.90;2.63;;;20.10;64.60;;;;;;5075955;28;20039;-52
2022/06/14 07:53:21;;;;;;;3.17;2.88;;;20.10;64.70;;;;;;5055932;28;20028;-50
2022/06/14 07:55:59;;;;;;;3.05;2.78;;;20.10;64.80;;;;;;5057062;28;20090;-48
2022/06/14 07:58:41;;;;;;;3.03;2.72;;;20.10;64.60;;;;;;5042259;28;20032;-47
2022/06/14 08:01:20;;;;;;;3.47;3.17;;;20.10;64.80;;;;;;5057051;28;20036;-49
2022/06/14 08:03:51;;;;;;;3.22;2.80;;;20.10;64.90;;;;;;5059422;28;20048;-50
2022/06/14 08:06:26;;;;;;;5.18;3.03;;;20.10;65.10;;;;;;5074203;28;20027;-46
2022/06/14 08:09:36;;;;;;;4.88;3.33;;;20.00;65.10;;;;;;5041247;28;20028;-53
2022/06/14 08:12:10;;;;;;;4.85;3.30;;;20.10;65.90;;;;;;5018976;28;20029;-44
2022/06/14 08:14:49;;;;;;;6.47;3.70;;;20.00;65.70;;;;;;5016931;28;20069;-45
2022/06/14 08:17:23;;;;;;;4.05;3.05;;;20.00;65.60;;;;;;5016672;28;20042;-45
2022/06/14 08:19:55;;;;;;;6.75;3.30;;;20.10;65.70;;;;;;5027006;28;20098;-45
2022/06/14 08:22:32;;;;;;;4.22;3.03;;;20.00;65.60;;;;;;5053740;28;20100;-45
2022/06/14 08:25:01;;;;;;;3.17;2.88;;;20.00;65.70;;;;;;5051808;28;20046;-46
2022/06/14 08:27:32;;;;;;;4.57;3.03;;;20.00;64.20;;;;;;5037205;28;20057;-43
2022/06/14 08:30:01;;;;;;;3.60;3.03;;;20.00;65.10;;;;;;5023629;28;20060;-46
2022/06/14 08:32:30;;;;;;;4.75;3.22;;;20.00;65.20;;;;;;5039051;28;20036;-48
2022/06/14 08:35:06;;;;;;;3.30;2.83;;;20.00;65.20;;;;;;5039715;28;20053;-48
2022/06/14 08:37:35;;;;;;;3.35;3.05;;;20.00;65.30;;;;;;5038856;28;20029;-47
2022/06/14 08:40:28;;;;;;;4.25;3.10;;;19.90;65.20;;;;;;5022901;28;20212;-51
2022/06/14 08:43:23;;;;;;;4.95;3.05;;;20.00;65.50;;;;;;5051384;28;20045;-48
2022/06/14 08:46:18;;;;;;;4.15;3.47;;;19.90;65.70;;;;;;5059784;28;20047;-49
2022/06/14 08:49:08;;;;;;;3.88;2.95;;;19.90;65.70;;;;;;5081565;28;20054;-49
2022/06/14 08:51:54;;;;;;;3.38;2.90;;;19.90;65.60;;;;;;5066799;28;20060;-48
2022/06/14 08:54:49;;;;;;;4.25;3.53;;;19.90;65.70;;;;;;5064115;28;20050;-49
2022/06/14 08:57:22;;;;;;;3.47;3.05;;;19.80;66.00;;;;;;5044150;28;20772;-47
2022/06/14 09:00:04;;;;;;;5.45;3.05;;;19.80;66.10;;;;;;5057940;28;20029;-47
2022/06/14 09:02:49;;;;;;;4.40;2.70;;;19.80;66.10;;;;;;5076139;28;20082;-47
2022/06/14 09:05:26;;;;;;;3.63;3.13;;;19.80;65.90;;;;;;5063160;28;20116;-51
2022/06/14 09:08:19;;;;;;;3.40;3.10;;;19.80;65.90;;;;;;5058409;28;20139;-48
2022/06/14 09:10:53;;;;;;;5.38;3.17;;;19.70;66.00;;;;;;5078334;28;20035;-49
2022/06/14 09:13:22;;;;;;;3.15;2.85;;;19.70;65.80;;;;;;5057194;28;20059;-51
2022/06/14 09:16:02;;;;;;;3.30;3.00;;;19.70;65.70;;;;;;5072803;28;20050;-47
2022/06/14 09:18:46;;;;;;;3.22;2.95;;;19.60;65.80;;;;;;5057365;28;20029;-48
2022/06/14 09:21:45;;;;;;;3.53;2.88;;;19.60;65.80;;;;;;5041256;28;20036;-50
2022/06/14 09:24:29;;;;;;;3.28;2.95;;;19.60;65.70;;;;;;5073289;28;20052;-49
2022/06/14 09:27:03;;;;;;;3.08;2.78;;;19.60;65.80;;;;;;5058249;28;20636;-49
2022/06/14 09:29:38;;;;;;;3.13;2.83;;;19.60;65.90;;;;;;5056915;28;20029;-47
2022/06/14 09:33:09;;;;;;;3.00;2.70;;;19.60;65.90;;;;;;5061102;28;20036;-48
2022/06/14 09:35:48;;;;;;;3.30;2.97;;;19.50;65.80;;;;;;5069069;28;20043;-47
2022/06/14 09:38:38;;;;;;;3.63;3.05;;;19.50;65.80;;;;;;5025813;28;20045;-48
2022/06/14 09:41:22;;;;;;;3.33;3.03;;;19.50;65.80;;;;;;5081467;28;20033;-49
2022/06/14 09:44:19;;;;;;;3.38;3.08;;;19.50;65.90;;;;;;5085094;28;20055;-47
2022/06/14 09:47:03;;;;;;;3.22;2.92;;;19.40;65.80;;;;;;5105610;28;20118;-47
2022/06/14 09:49:43;;;;;;;3.78;2.63;;;19.40;65.90;;;;;;5085356;28;20032;-48
2022/06/14 09:52:34;;;;;;;3.58;3.00;;;19.40;65.90;;;;;;5071795;28;20029;-47
2022/06/14 09:55:57;;;;;;;3.20;2.90;;;19.40;65.70;;;;;;5094403;28;20040;-49
2022/06/14 09:58:28;;;;;;;2.92;2.72;;;19.30;65.90;;;;;;4980482;28;20023;-47
2022/06/14 10:01:08;;;;;;;2.85;2.53;;;19.30;65.90;;;;;;4984191;28;20027;-47
2022/06/14 10:03:49;;;;;;;3.17;2.88;;;19.30;66.00;;;;;;4990661;28;20042;-48
2022/06/14 10:06:48;;;;;;;3.25;2.95;;;19.30;65.80;;;;;;5002738;28;20034;-47
2022/06/14 10:09:23;;;;;;;3.75;3.10;;;19.20;65.70;;;;;;4986633;28;20031;-46
2022/06/14 10:12:08;;;;;;;3.42;2.97;;;19.20;65.40;;;;;;4973054;28;20038;-48
2022/06/14 10:14:53;;;;;;;2.90;2.70;;;19.20;65.50;;;;;;4981975;28;20046;-47
2022/06/14 10:17:33;;;;;;;3.28;2.97;;;19.20;65.60;;;;;;4965296;28;20031;-48
2022/06/14 10:20:13;;;;;;;3.13;2.80;;;19.20;65.70;;;;;;4982764;28;20089;-47
2022/06/14 10:22:55;;;;;;;2.70;2.50;;;19.10;65.70;;;;;;4967115;28;20042;-46
2022/06/14 10:25:33;;;;;;;4.13;3.05;;;19.10;65.60;;;;;;4968835;28;20134;-46
2022/06/14 10:28:13;;;;;;;2.83;2.60;;;19.10;65.60;;;;;;4982820;28;20035;-47
2022/06/14 10:31:09;;;;;;;3.00;2.80;;;19.10;65.70;;;;;;5065353;28;20029;-47
2022/06/14 10:33:57;;;;;;;3.70;2.83;;;19.10;65.60;;;;;;5056734;28;20043;-48
2022/06/14 10:36:40;;;;;;;3.15;2.83;;;19.10;65.70;;;;;;5066798;28;20023;-46
2022/06/14 10:39:20;;;;;;;3.25;2.95;;;19.00;65.70;;;;;;5066162;28;20037;-47
2022/06/14 10:42:23;;;;;;;3.30;3.00;;;19.00;66.00;;;;;;5057689;28;20028;-48
2022/06/14 10:45:11;;;;;;;3.20;2.90;;;19.00;66.00;;;;;;5085316;28;20769;-48
2022/06/14 10:48:07;;;;;;;3.10;2.78;;;18.90;65.90;;;;;;5081304;28;20096;-48
2022/06/14 10:50:48;;;;;;;3.63;2.90;;;18.90;65.70;;;;;;5078673;28;20028;-49
2022/06/14 10:53:35;;;;;;;3.40;3.00;;;18.90;65.80;;;;;;5064700;28;20056;-49
2022/06/14 10:56:39;;;;;;;3.40;3.03;;;18.90;65.70;;;;;;5068314;28;20032;-47
2022/06/14 10:59:05;;;;;;;3.42;3.13;;;18.90;66.10;;;;;;5052805;28;20044;-50
2022/06/14 11:01:46;;;;;;;3.22;2.92;;;18.90;65.90;;;;;;5094959;28;20016;-48
2022/06/14 11:04:28;;;;;;;3.55;2.65;;;18.80;65.70;;;;;;5077134;28;20029;-50
2022/06/14 11:07:03;;;;;;;3.10;2.90;;;18.80;65.70;;;;;;5051645;28;20036;-47
2022/06/14 11:09:41;;;;;;;4.68;3.10;;;18.80;65.60;;;;;;5082730;28;20029;-48
2022/06/14 11:12:10;;;;;;;;;;;18.80;65.90;;;;;;5067064;28;20084;-48
2022/06/14 11:14:48;;;;;;;3.20;2.90;;;18.80;66.00;;;;;;5084508;28;19971;-48
2022/06/14 11:17:42;;;;;;;3.40;3.00;;;18.70;66.30;;;;;;5082827;28;20084;-47
2022/06/14 11:20:33;;;;;;;2.78;2.58;;;18.70;66.40;;;;;;5075978;28;20020;-47
2022/06/14 11:23:14;;;;;;;3.28;2.97;;;18.70;66.20;;;;;;5061029;28;20115;-46
2022/06/14 11:25:44;;;;;;;3.20;2.90;;;18.70;66.30;;;;;;5057502;28;20040;-48
2022/06/14 11:28:19;;;;;;;3.35;3.05;;;18.60;66.20;;;;;;5075204;28;20032;-47
2022/06/14 11:30:58;;;;;;;4.35;3.10;;;18.60;66.10;;;;;;5075045;28;20047;-48
2022/06/14 11:33:27;;;;;;;3.20;2.90;;;18.60;66.30;;;;;;5074986;28;20063;-47
2022/06/14 11:36:05;;;;;;;3.10;2.80;;;18.60;66.80;;;;;;5076011;28;20025;-49
2022/06/14 11:38:56;;;;;;;3.00;2.70;;;18.60;67.50;;;;;;5058048;28;20085;-49
2022/06/14 11:41:24;;;;;;;4.05;2.70;;;18.60;67.70;;;;;;5073455;28;20051;-49
2022/06/14 11:44:12;;;;;;;2.92;2.72;;;18.60;67.40;;;;;;5039786;28;20036;-52
2022/06/14 11:46:58;;;;;;;2.72;2.45;;;18.60;67.40;;;;;;5056506;28;20028;-49
2022/06/14 11:49:56;;;;;;;3.10;2.80;;;18.60;67.50;;;;;;5065448;28;20040;-49
2022/06/14 11:52:34;;;;;;;3.20;2.60;;;18.60;67.50;;;;;;5015740;28;20033;-48
2022/06/14 11:55:12;;;;;;;3.15;2.85;;;18.70;67.70;;;;;;5063730;28;20160;-50
2022/06/14 11:57:57;;;;;;;2.97;2.67;;;18.70;67.70;;;;;;5059292;28;20025;-46
2022/06/14 12:00:48;;;;;;;2.95;2.75;;;18.70;67.70;;;;;;5083592;28;20028;-47
2022/06/14 12:03:23;;;;;;;2.83;2.63;;;18.80;67.90;;;;;;5069787;28;20043;-48
2022/06/14 12:06:22;;;;;;;2.88;2.63;;;18.80;68.00;;;;;;5059201;28;20029;-49
2022/06/14 12:09:21;;;;;;;2.88;2.65;;;18.80;68.00;;;;;;5055182;28;20017;-46
2022/06/14 12:12:14;;;;;;;3.03;2.70;;;18.90;68.00;;;;;;5066841;28;20785;-46
2022/06/14 12:14:51;;;;;;;2.58;2.38;;;18.90;68.00;;;;;;5077337;28;20059;-47
2022/06/14 12:17:42;;;;;;;2.83;2.60;;;19.00;68.10;;;;;;5081762;28;20020;-47
2022/06/14 12:20:13;;;;;;;3.30;3.00;;;19.00;68.10;;;;;;5072948;28;20060;-48
2022/06/14 12:23:20;;;;;;;2.80;2.60;;;19.00;68.20;;;;;;5076812;28;20549;-47
2022/06/14 12:29:17;;;;;;;3.92;2.60;;;19.10;68.40;;;;;;5067974;28;20039;-47
2022/06/14 12:32:08;;;;;;;2.70;2.50;;;19.20;68.60;;;;;;5065013;28;20043;-48
2022/06/14 12:34:36;;;;;;;2.75;2.55;;;19.20;68.50;;;;;;5062512;28;20043;-48
2022/06/14 12:37:30;;;;;;;2.85;2.65;;;19.20;68.60;;;;;;5081994;28;20029;-51
2022/06/14 12:40:10;;;;;;;3.25;2.70;;;19.30;68.60;;;;;;5077320;28;20039;-49
2022/06/14 12:42:41;;;;;;;2.85;2.65;;;19.30;68.80;;;;;;5070521;28;20065;-49
2022/06/14 12:45:26;;;;;;;2.92;2.70;;;19.40;68.90;;;;;;5064759;28;20073;-47
2022/06/14 12:48:08;;;;;;;2.85;2.55;;;19.50;69.00;;;;;;5048014;28;20478;-46
2022/06/14 12:50:43;;;;;;;3.05;2.85;;;19.50;69.10;;;;;;5081542;28;20050;-49
2022/06/14 12:53:34;;;;;;;2.58;2.38;;;19.50;69.10;;;;;;5082857;28;20044;-46
2022/06/14 12:56:12;;;;;;;2.78;2.58;;;19.60;69.40;;;;;;5073296;28;20046;-50
2022/06/14 12:58:57;;;;;;;;;;;19.60;69.40;;;;;;5070078;28;20033;-47
2022/06/14 13:01:45;;;;;;;2.42;2.22;;;19.60;69.70;;;;;;5081066;28;20007;-47
2022/06/14 13:04:27;;;;;;;3.28;2.78;;;19.70;69.70;;;;;;5073467;28;20032;-50
2022/06/14 13:07:24;;;;;;;2.75;2.55;;;19.70;69.80;;;;;;5079004;28;20045;-46
2022/06/14 13:10:11;;;;;;;3.17;2.85;;;19.80;70.00;;;;;;5079811;28;20039;-47
2022/06/14 13:13:03;;;;;;;3.00;2.67;;;19.80;70.20;;;;;;5069272;28;20227;-48
2022/06/14 13:15:51;;;;;;;3.10;2.80;;;19.90;70.40;;;;;;5076135;28;20086;-47
2022/06/14 13:18:20;;;;;;;2.80;2.60;;;19.90;70.50;;;;;;5070497;28;20024;-46
2022/06/14 13:21:16;;;;;;;2.95;2.75;;;20.00;70.70;;;;;;5062510;28;20032;-46
2022/06/14 13:24:03;;;;;;;3.20;2.90;;;20.00;71.10;;;;;;5040541;28;20040;-47
2022/06/14 13:26:41;;;;;;;3.15;2.85;;;20.10;71.20;;;;;;5081924;28;20028;-50
2022/06/14 13:29:39;;;;;;;3.35;3.05;;;20.10;71.30;;;;;;5070123;28;20199;-46
2022/06/14 13:32:30;;;;;;;2.90;2.58;;;20.20;71.70;;;;;;5061417;28;20048;-47
2022/06/14 13:35:23;;;;;;;3.70;2.72;;;20.30;71.70;;;;;;5089171;28;20036;-45
2022/06/14 13:38:03;;;;;;;3.08;2.80;;;20.30;71.90;;;;;;5061852;28;20029;-46
2022/06/14 13:40:35;;;;;;;3.33;3.03;;;20.30;72.20;;;;;;5051794;28;20033;-45
2022/06/14 13:43:29;;;;;;;3.38;3.08;;;20.40;72.30;;;;;;5077362;28;20035;-48
2022/06/14 13:46:03;;;;;;;3.45;2.88;;;20.50;72.40;;;;;;5079805;28;20024;-46
2022/06/14 13:49:01;;;;;;;3.70;2.95;;;20.50;72.70;;;;;;5044057;28;20051;-46
2022/06/14 13:51:45;;;;;;;3.28;2.97;;;20.60;73.30;;;;;;5029113;28;20056;-45
2022/06/14 13:54:36;;;;;;;3.45;3.00;;;20.60;73.40;;;;;;5022435;28;20875;-46
2022/06/14 13:57:43;;;;;;;3.25;2.92;;;20.70;73.30;;;;;;5036072;28;20022;-47
2022/06/14 14:00:25;;;;;;;4.32;3.35;;;20.70;72.40;;;;;;4980137;28;20042;-46
2022/06/14 14:03:15;;;;;;;4.28;3.42;;;20.70;72.40;;;;;;4970654;28;20039;-47